createdAt,value
2022-08-24T00:01:06.034Z,21.00
2022-08-24T00:03:34.130Z,21.10
2022-08-24T00:06:01.975Z,21.10
2022-08-24T00:08:28.836Z,21.20
2022-08-24T00:10:59.631Z,21.20
2022-08-24T00:13:32.481Z,21.20
2022-08-24T00:15:59.172Z,21.20
2022-08-24T00:18:28.911Z,21.20
2022-08-24T00:20:57.886Z,21.20
2022-08-24T00:23:26.732Z,21.20
2022-08-24T00:25:53.336Z,21.10
2022-08-24T00:28:19.998Z,21.10
2022-08-24T00:30:46.628Z,21.00
2022-08-24T00:33:13.188Z,21.00
2022-08-24T00:35:39.774Z,21.00
2022-08-24T00:38:06.344Z,21.10
2022-08-24T00:40:35.243Z,21.10
2022-08-24T00:43:05.317Z,21.10
2022-08-24T00:45:36.443Z,21.10
2022-08-24T00:48:05.380Z,21.00
2022-08-24T00:50:34.779Z,21.00
2022-08-24T00:53:03.450Z,21.00
2022-08-24T00:55:32.904Z,21.00
2022-08-24T00:58:04.801Z,20.90
2022-08-24T01:00:35.841Z,20.90
2022-08-24T01:03:05.180Z,20.90
2022-08-24T01:05:32.379Z,20.90
2022-08-24T01:07:59.327Z,20.90
2022-08-24T01:10:29.602Z,20.90
2022-08-24T01:13:01.423Z,20.90
2022-08-24T01:15:29.283Z,20.80
2022-08-24T01:18:15.251Z,20.80
2022-08-24T01:20:43.975Z,20.80
2022-08-24T01:23:18.151Z,20.70
2022-08-24T01:25:47.206Z,20.70
2022-08-24T01:28:15.408Z,20.70
2022-08-24T01:30:42.890Z,20.70
2022-08-24T01:33:10.325Z,20.60
2022-08-24T01:35:38.605Z,20.60
2022-08-24T01:38:08.985Z,20.60
2022-08-24T01:40:37.349Z,20.60
2022-08-24T01:43:08.161Z,20.60
2022-08-24T01:45:38.045Z,20.60
2022-08-24T01:48:04.954Z,20.60
2022-08-24T01:50:32.090Z,20.50
2022-08-24T01:53:05.569Z,20.50
2022-08-24T01:55:35.104Z,20.50
2022-08-24T01:58:01.722Z,20.50
2022-08-24T02:00:28.803Z,20.40
2022-08-24T02:03:00.187Z,20.40
2022-08-24T02:05:26.913Z,20.40
2022-08-24T02:07:55.710Z,20.30
2022-08-24T02:10:22.544Z,20.30
2022-08-24T02:13:00.776Z,20.20
2022-08-24T02:15:31.773Z,20.10
2022-08-24T02:17:58.606Z,20.10
2022-08-24T02:20:25.279Z,20.10
2022-08-24T02:22:52.482Z,20.10
2022-08-24T02:25:21.984Z,20.00
2022-08-24T02:27:48.647Z,20.00
2022-08-24T02:30:15.898Z,20.00
2022-08-24T02:32:42.515Z,19.90
2022-08-24T02:35:09.730Z,19.90
2022-08-24T02:37:36.521Z,19.90
2022-08-24T02:40:10.754Z,19.90
2022-08-24T02:42:37.610Z,19.90
2022-08-24T02:45:05.097Z,19.90
2022-08-24T02:47:37.987Z,19.90
2022-08-24T02:50:11.311Z,19.80
2022-08-24T02:52:39.423Z,19.70
2022-08-24T02:55:07.007Z,19.70
2022-08-24T02:57:33.596Z,19.70
2022-08-24T03:00:05.949Z,19.70
2022-08-24T03:02:36.185Z,19.80
2022-08-24T03:05:03.504Z,19.80
2022-08-24T03:07:30.074Z,19.70
2022-08-24T03:09:56.656Z,19.70
2022-08-24T03:12:23.244Z,19.70
2022-08-24T03:14:49.847Z,19.60
2022-08-24T03:17:16.432Z,19.60
2022-08-24T03:19:43.070Z,19.60
2022-08-24T03:22:09.764Z,19.50
2022-08-24T03:24:38.683Z,19.50
2022-08-24T03:27:05.681Z,19.50
2022-08-24T03:29:35.273Z,19.50
2022-08-24T03:32:02.531Z,19.50
2022-08-24T03:34:29.109Z,19.60
2022-08-24T03:36:55.691Z,19.50
2022-08-24T03:39:22.298Z,19.50
2022-08-24T03:41:48.901Z,19.50
2022-08-24T03:44:15.475Z,19.40
2022-08-24T03:46:45.256Z,19.40
2022-08-24T03:49:13.283Z,19.40
2022-08-24T03:51:39.965Z,19.40
2022-08-24T03:54:08.603Z,19.40
2022-08-24T03:56:37.583Z,19.30
2022-08-24T03:59:05.063Z,19.20
2022-08-24T04:01:31.837Z,19.10
2022-08-24T04:03:59.070Z,19.00
2022-08-24T04:06:26.205Z,19.10
2022-08-24T04:08:55.038Z,19.10
2022-08-24T04:11:25.640Z,19.10
2022-08-24T04:13:56.953Z,19.00
2022-08-24T04:16:27.247Z,19.10
2022-08-24T04:18:53.918Z,19.10
2022-08-24T04:21:24.795Z,19.00
2022-08-24T04:23:54.862Z,18.90
2022-08-24T04:26:35.060Z,18.90
2022-08-24T04:29:11.057Z,18.90
2022-08-24T04:31:38.096Z,18.90
2022-08-24T04:34:05.685Z,18.90
2022-08-24T04:36:32.601Z,19.00
2022-08-24T04:39:00.500Z,19.00
2022-08-24T04:41:31.535Z,19.00
2022-08-24T04:44:01.354Z,19.00
2022-08-24T04:46:30.892Z,19.00
2022-08-24T04:48:57.730Z,19.00
2022-08-24T04:51:24.338Z,19.10
2022-08-24T04:53:53.418Z,19.10
2022-08-24T04:56:24.180Z,19.10
2022-08-24T04:58:53.662Z,19.10
2022-08-24T05:01:22.002Z,19.00
2022-08-24T05:03:50.189Z,19.00
2022-08-24T05:06:17.850Z,19.00
2022-08-24T05:08:46.640Z,19.00
2022-08-24T05:11:14.040Z,19.00
2022-08-24T05:13:41.021Z,19.00
2022-08-24T05:16:08.758Z,19.00
2022-08-24T05:18:35.636Z,19.00
2022-08-24T05:21:04.743Z,19.00
2022-08-24T05:23:33.576Z,19.00
2022-08-24T05:26:14.728Z,19.10
2022-08-24T05:28:41.315Z,19.10
2022-08-24T05:31:09.432Z,19.10
2022-08-24T05:33:36.240Z,19.20
2022-08-24T05:36:03.499Z,19.20
2022-08-24T05:38:30.344Z,19.20
2022-08-24T05:40:56.920Z,19.20
2022-08-24T05:43:26.071Z,19.20
2022-08-24T05:45:52.641Z,19.20
2022-08-24T05:48:23.918Z,19.10
2022-08-24T05:50:57.642Z,19.10
2022-08-24T05:53:24.561Z,19.10
2022-08-24T05:55:54.332Z,19.10
2022-08-24T05:58:31.337Z,19.00
2022-08-24T06:01:00.727Z,19.00
2022-08-24T06:03:29.477Z,19.00
2022-08-24T06:05:56.087Z,19.00
2022-08-24T06:08:24.901Z,19.10
2022-08-24T06:10:51.613Z,19.20
2022-08-24T06:13:20.449Z,19.30
2022-08-24T06:15:59.656Z,19.40
2022-08-24T06:18:34.622Z,19.30
2022-08-24T06:21:15.098Z,19.30
2022-08-24T06:23:44.147Z,19.30
2022-08-24T06:26:30.233Z,19.40
2022-08-24T06:29:00.276Z,19.50
2022-08-24T06:31:27.643Z,19.70
2022-08-24T06:33:54.932Z,19.90
2022-08-24T06:36:22.850Z,20.00
2022-08-24T06:38:49.749Z,20.20
2022-08-24T06:41:20.535Z,20.30
2022-08-24T06:43:47.413Z,21.40
2022-08-24T06:46:18.065Z,23.30
2022-08-24T06:48:48.625Z,24.60
2022-08-24T06:51:17.258Z,25.80
2022-08-24T06:53:44.527Z,26.90
2022-08-24T06:56:13.314Z,27.80
2022-08-24T06:58:42.747Z,28.10
2022-08-24T07:01:14.255Z,28.50
2022-08-24T07:03:40.955Z,28.60
2022-08-24T07:06:08.280Z,29.20
2022-08-24T07:08:35.535Z,29.90
2022-08-24T07:11:02.651Z,30.60
2022-08-24T07:13:32.024Z,31.00
2022-08-24T07:15:58.859Z,31.00
2022-08-24T07:18:25.487Z,31.40
2022-08-24T07:20:53.566Z,31.70
2022-08-24T07:23:20.686Z,31.70
2022-08-24T07:25:54.156Z,31.50
2022-08-24T07:28:27.697Z,30.80
2022-08-24T07:30:58.284Z,30.30
2022-08-24T07:33:24.943Z,29.90
2022-08-24T07:35:51.512Z,29.50
2022-08-24T07:38:25.047Z,29.70
2022-08-24T07:43:42.850Z,29.80
2022-08-24T07:46:09.933Z,29.90
2022-08-24T07:48:36.583Z,29.20
2022-08-24T07:51:07.307Z,28.80
2022-08-24T07:53:52.641Z,28.60
2022-08-24T07:56:22.769Z,28.30
2022-08-24T07:58:49.385Z,28.40
2022-08-24T08:01:22.350Z,28.30
2022-08-24T08:03:50.378Z,28.10
2022-08-24T08:06:17.375Z,27.90
2022-08-24T08:08:46.427Z,27.80
2022-08-24T08:11:13.536Z,27.60
2022-08-24T08:16:12.006Z,27.30
2022-08-24T08:18:38.774Z,27.20
2022-08-24T08:21:05.632Z,27.00
2022-08-24T08:23:50.831Z,26.90
2022-08-24T08:26:21.203Z,26.90
2022-08-24T08:28:50.514Z,26.70
2022-08-24T08:31:17.168Z,26.90
2022-08-24T08:33:43.803Z,27.00
2022-08-24T08:36:15.049Z,27.20
2022-08-24T08:38:42.980Z,27.30
2022-08-24T08:41:10.557Z,27.50
2022-08-24T08:43:42.478Z,27.60
2022-08-24T08:46:27.685Z,27.80
2022-08-24T08:49:05.454Z,27.80
2022-08-24T08:51:50.929Z,27.70
2022-08-24T08:54:38.783Z,27.70
2022-08-24T08:57:23.356Z,27.70
2022-08-24T08:59:57.830Z,27.70
2022-08-24T09:02:46.725Z,27.80
2022-08-24T09:05:32.159Z,27.90
2022-08-24T09:07:58.756Z,27.90
2022-08-24T09:10:31.170Z,28.20
2022-08-24T09:13:03.847Z,28.20
2022-08-24T09:15:48.893Z,28.20
2022-08-24T09:18:56.206Z,28.30
2022-08-24T09:21:22.760Z,28.10
2022-08-24T09:23:55.302Z,28.10
2022-08-24T09:26:27.198Z,28.10
2022-08-24T09:28:59.913Z,28.10
2022-08-24T09:34:08.965Z,28.30
2022-08-24T09:36:38.678Z,28.30
2022-08-24T09:39:20.490Z,28.20
2022-08-24T09:41:51.413Z,28.30
2022-08-24T09:44:35.811Z,28.40
2022-08-24T09:47:05.237Z,28.40
2022-08-24T09:49:50.481Z,28.50
2022-08-24T09:52:35.871Z,28.50
2022-08-24T09:55:03.208Z,28.40
2022-08-24T09:57:50.493Z,28.20
2022-08-24T10:00:31.173Z,28.20
2022-08-24T10:03:13.668Z,28.20
2022-08-24T10:05:40.336Z,28.20
2022-08-24T10:08:12.761Z,28.20
2022-08-24T10:10:42.525Z,28.30
2022-08-24T10:13:27.164Z,28.20
2022-08-24T10:16:16.978Z,28.30
2022-08-24T10:19:01.179Z,28.40
2022-08-24T10:21:46.376Z,28.40
2022-08-24T10:24:29.155Z,28.50
2022-08-24T10:26:59.361Z,28.50
2022-08-24T10:29:25.924Z,28.50
2022-08-24T10:32:04.809Z,28.60
2022-08-24T10:34:40.595Z,28.60
2022-08-24T10:37:13.305Z,28.70
2022-08-24T10:40:09.358Z,28.80
2022-08-24T10:43:07.137Z,28.80
2022-08-24T10:46:00.690Z,29.00
2022-08-24T10:48:33.462Z,29.00
2022-08-24T10:51:15.858Z,29.00
2022-08-24T10:53:47.710Z,29.00
2022-08-24T10:56:18.421Z,29.20
2022-08-24T10:58:57.297Z,29.20
2022-08-24T11:01:28.964Z,29.20
2022-08-24T11:03:55.806Z,29.20
2022-08-24T11:06:24.311Z,29.30
2022-08-24T11:09:02.522Z,29.30
2022-08-24T11:11:34.089Z,29.30
2022-08-24T11:14:03.076Z,29.30
2022-08-24T11:16:32.003Z,29.40
2022-08-24T11:19:00.593Z,29.50
2022-08-24T11:21:33.145Z,29.60
2022-08-24T11:24:06.807Z,29.60
2022-08-24T11:26:45.497Z,29.70
2022-08-24T11:29:12.068Z,29.70
2022-08-24T11:31:40.498Z,29.70
2022-08-24T11:34:09.550Z,29.80
2022-08-24T11:36:37.880Z,29.90
2022-08-24T11:39:21.131Z,30.00
2022-08-24T11:42:08.289Z,30.00
2022-08-24T11:44:37.019Z,30.00
2022-08-24T11:47:12.151Z,30.00
2022-08-24T11:49:54.917Z,30.10
2022-08-24T11:52:40.295Z,30.10
2022-08-24T11:55:46.631Z,30.20
2022-08-24T11:58:14.132Z,30.30
2022-08-24T12:00:43.609Z,30.30
2022-08-24T12:03:30.740Z,30.40
2022-08-24T12:06:00.965Z,30.30
2022-08-24T12:08:27.532Z,30.30
2022-08-24T12:11:09.178Z,30.30
2022-08-24T12:13:37.923Z,30.40
2022-08-24T12:16:24.921Z,30.40
2022-08-24T12:18:55.251Z,30.50
2022-08-24T12:21:23.995Z,30.50
2022-08-24T12:24:12.984Z,30.50
2022-08-24T12:26:45.584Z,30.50
2022-08-24T12:29:18.071Z,30.50
2022-08-24T12:31:55.969Z,30.50
2022-08-24T12:34:26.030Z,30.50
2022-08-24T12:36:55.699Z,30.50
2022-08-24T12:39:25.858Z,30.40
2022-08-24T12:42:05.790Z,30.50
2022-08-24T12:44:37.546Z,30.50
2022-08-24T12:47:06.695Z,30.60
2022-08-24T12:49:45.908Z,30.70
2022-08-24T12:52:23.012Z,30.70
2022-08-24T12:54:52.625Z,30.70
2022-08-24T12:57:34.239Z,30.70
2022-08-24T13:00:30.261Z,30.70
2022-08-24T13:03:06.679Z,30.70
2022-08-24T13:05:49.412Z,30.80
2022-08-24T13:08:35.389Z,30.80
2022-08-24T13:11:06.000Z,30.80
2022-08-24T13:13:44.357Z,30.80
2022-08-24T13:16:11.125Z,30.80
2022-08-24T13:18:52.753Z,30.80
2022-08-24T13:21:34.986Z,30.70
2022-08-24T13:24:20.137Z,30.80
2022-08-24T13:26:49.172Z,30.80
2022-08-24T13:29:16.314Z,30.90
2022-08-24T13:31:48.699Z,31.00
2022-08-24T13:34:17.781Z,31.00
2022-08-24T13:36:52.794Z,30.90
2022-08-24T13:39:34.937Z,31.00
2022-08-24T13:42:07.450Z,31.10
2022-08-24T13:44:52.352Z,31.10
2022-08-24T13:47:22.855Z,31.10
2022-08-24T13:50:09.807Z,31.10
2022-08-24T13:52:57.640Z,31.10
2022-08-24T13:55:44.970Z,31.20
2022-08-24T13:58:30.315Z,31.20
2022-08-24T14:01:15.562Z,31.20
2022-08-24T14:04:09.094Z,31.20
2022-08-24T14:06:56.815Z,31.30
2022-08-24T14:09:40.581Z,31.40
2022-08-24T14:12:16.463Z,31.30
2022-08-24T14:14:52.641Z,31.30
2022-08-24T14:17:40.698Z,31.30
2022-08-24T14:20:10.915Z,31.20
2022-08-24T14:23:05.750Z,31.20
2022-08-24T14:25:37.660Z,31.30
2022-08-24T14:28:04.505Z,31.30
2022-08-24T14:30:31.194Z,31.30
2022-08-24T14:33:00.427Z,31.30
2022-08-24T14:35:36.348Z,31.30
2022-08-24T14:38:12.373Z,31.40
2022-08-24T14:40:47.984Z,31.50
2022-08-24T14:43:44.264Z,31.50
2022-08-24T14:46:33.622Z,31.50
2022-08-24T14:49:20.166Z,31.50
2022-08-24T14:51:49.560Z,31.50
2022-08-24T14:54:24.974Z,31.50
2022-08-24T14:56:58.430Z,31.50
2022-08-24T14:59:30.604Z,31.50
2022-08-24T15:02:17.448Z,31.50
2022-08-24T15:04:56.332Z,31.50
2022-08-24T15:07:31.171Z,31.50
2022-08-24T15:09:58.737Z,31.60
2022-08-24T15:12:44.241Z,31.70
2022-08-24T15:15:13.317Z,31.70
2022-08-24T15:17:55.750Z,31.70
2022-08-24T15:20:41.158Z,31.70
2022-08-24T15:23:11.394Z,31.60
2022-08-24T15:25:44.739Z,31.50
2022-08-24T15:28:23.928Z,31.50
2022-08-24T15:30:59.071Z,31.50
2022-08-24T15:33:27.192Z,31.50
2022-08-24T15:36:05.017Z,31.50
2022-08-24T15:38:35.355Z,31.50
2022-08-24T15:41:12.599Z,31.50
2022-08-24T15:43:44.792Z,31.50
2022-08-24T15:46:12.225Z,31.50
2022-08-24T15:48:41.928Z,31.50
2022-08-24T15:51:28.678Z,31.40
2022-08-24T15:53:57.664Z,31.40
2022-08-24T15:56:25.880Z,31.40
2022-08-24T15:58:52.619Z,31.40
2022-08-24T16:01:40.023Z,31.40
2022-08-24T16:04:09.464Z,31.40
2022-08-24T16:06:45.093Z,31.30
2022-08-24T16:09:15.984Z,31.30
2022-08-24T16:11:45.734Z,31.40
2022-08-24T16:14:17.262Z,31.30
2022-08-24T16:16:47.609Z,31.40
2022-08-24T16:19:19.551Z,31.40
2022-08-24T16:21:58.479Z,31.40
2022-08-24T16:24:30.472Z,31.40
2022-08-24T16:27:06.452Z,31.40
2022-08-24T16:29:33.034Z,31.30
2022-08-24T16:32:10.649Z,31.30
2022-08-24T16:34:49.620Z,31.30
2022-08-24T16:37:18.342Z,31.30
2022-08-24T16:39:45.156Z,31.30
2022-08-24T16:42:27.387Z,31.20
2022-08-24T16:44:54.580Z,31.20
2022-08-24T16:47:22.071Z,31.20
2022-08-24T16:49:49.144Z,31.20
2022-08-24T16:52:16.033Z,31.20
2022-08-24T16:54:45.910Z,31.10
2022-08-24T16:57:14.177Z,31.10
2022-08-24T16:59:42.132Z,31.10
2022-08-24T17:02:09.384Z,31.00
2022-08-24T17:04:39.298Z,31.00
2022-08-24T17:07:07.875Z,31.00
2022-08-24T17:09:36.471Z,30.90
2022-08-24T17:12:03.570Z,30.90
2022-08-24T17:14:32.291Z,30.80
2022-08-24T17:16:59.151Z,30.80
2022-08-24T17:19:30.681Z,30.80
2022-08-24T17:21:57.756Z,30.70
2022-08-24T17:24:25.106Z,30.60
2022-08-24T17:26:55.330Z,30.60
2022-08-24T17:29:22.401Z,30.60
2022-08-24T17:31:49.989Z,30.50
2022-08-24T17:34:17.247Z,30.50
2022-08-24T17:36:44.780Z,30.40
2022-08-24T17:39:12.288Z,30.40
2022-08-24T17:41:38.891Z,30.40
2022-08-24T17:44:08.350Z,30.30
2022-08-24T17:46:35.292Z,30.30
2022-08-24T17:49:04.112Z,30.20
2022-08-24T17:51:30.733Z,30.20
2022-08-24T17:53:59.467Z,30.20
2022-08-24T17:56:27.210Z,30.20
2022-08-24T17:59:14.977Z,30.10
2022-08-24T18:01:41.573Z,30.10
2022-08-24T18:04:08.175Z,30.10
2022-08-24T18:06:35.284Z,30.00
2022-08-24T18:09:06.817Z,30.00
2022-08-24T18:11:36.135Z,30.00
2022-08-24T18:14:02.867Z,29.90
2022-08-24T18:16:29.556Z,29.80
2022-08-24T18:18:56.745Z,29.80
2022-08-24T18:21:23.718Z,29.80
2022-08-24T18:23:52.914Z,29.70
2022-08-24T18:26:21.436Z,29.70
2022-08-24T18:28:53.019Z,29.60
2022-08-24T18:31:20.837Z,29.60
2022-08-24T18:33:47.471Z,29.50
2022-08-24T18:36:14.034Z,29.50
2022-08-24T18:38:44.159Z,29.40
2022-08-24T18:41:12.995Z,29.40
2022-08-24T18:43:40.453Z,29.30
2022-08-24T18:46:09.545Z,29.30
2022-08-24T18:48:36.376Z,29.30
2022-08-24T18:51:03.545Z,29.20
2022-08-24T18:53:35.495Z,29.20
2022-08-24T18:56:09.347Z,29.20
2022-08-24T18:58:38.972Z,29.20
2022-08-24T19:01:06.085Z,29.10
2022-08-24T19:03:33.314Z,29.00
2022-08-24T19:06:00.081Z,29.00
2022-08-24T19:08:26.713Z,28.90
2022-08-24T19:10:53.412Z,28.80
2022-08-24T19:13:20.084Z,28.80
2022-08-24T19:15:47.328Z,28.70
2022-08-24T19:18:15.993Z,28.60
2022-08-24T19:20:48.280Z,28.50
2022-08-24T19:23:29.926Z,28.40
2022-08-24T19:25:56.942Z,28.40
2022-08-24T19:28:26.361Z,28.30
2022-08-24T19:30:56.936Z,28.30
2022-08-24T19:33:28.268Z,28.20
2022-08-24T19:35:57.234Z,28.20
2022-08-24T19:38:26.128Z,28.10
2022-08-24T19:40:57.032Z,28.10
2022-08-24T19:43:27.064Z,28.00
2022-08-24T19:46:05.361Z,28.00
2022-08-24T19:48:33.176Z,28.00
2022-08-24T19:51:04.570Z,27.90
2022-08-24T19:53:32.463Z,27.80
2022-08-24T19:55:59.456Z,27.80
2022-08-24T19:58:44.918Z,27.60
2022-08-24T20:01:13.319Z,27.50
2022-08-24T20:03:40.936Z,27.40
2022-08-24T20:06:07.593Z,27.40
2022-08-24T20:08:34.213Z,27.30
2022-08-24T20:11:00.969Z,27.30
2022-08-24T20:13:27.945Z,27.30
2022-08-24T20:15:55.454Z,27.30
2022-08-24T20:18:25.215Z,27.20
2022-08-24T20:20:56.703Z,27.20
2022-08-24T20:23:23.647Z,27.10
2022-08-24T20:25:52.735Z,27.00
2022-08-24T20:28:29.308Z,26.90
2022-08-24T20:30:56.896Z,26.80
2022-08-24T20:33:27.620Z,26.60
2022-08-24T20:35:59.401Z,26.50
2022-08-24T20:38:32.026Z,26.50
2022-08-24T20:40:59.492Z,26.30
2022-08-24T20:43:26.185Z,26.30
2022-08-24T20:45:55.160Z,26.30
2022-08-24T20:48:25.572Z,26.20
2022-08-24T20:50:52.238Z,26.20
2022-08-24T20:53:18.947Z,26.10
2022-08-24T20:55:45.688Z,26.10
2022-08-24T20:58:12.971Z,26.00
2022-08-24T21:00:44.034Z,26.10
2022-08-24T21:03:10.651Z,26.00
2022-08-24T21:05:38.143Z,25.90
2022-08-24T21:08:05.440Z,25.80
2022-08-24T21:10:32.378Z,25.70
2022-08-24T21:13:00.281Z,25.70
2022-08-24T21:15:29.159Z,25.60
2022-08-24T21:17:58.140Z,25.50
2022-08-24T21:20:25.614Z,25.50
2022-08-24T21:22:52.186Z,25.40
2022-08-24T21:25:18.838Z,25.30
2022-08-24T21:27:46.531Z,25.30
2022-08-24T21:30:15.095Z,25.20
2022-08-24T21:33:00.566Z,25.10
2022-08-24T21:35:27.340Z,25.10
2022-08-24T21:37:54.010Z,25.10
2022-08-24T21:40:23.351Z,25.10
2022-08-24T21:42:52.289Z,25.00
2022-08-24T21:45:21.314Z,24.90
2022-08-24T21:47:48.066Z,24.90
2022-08-24T21:50:16.203Z,24.80
2022-08-24T21:52:43.062Z,24.70
2022-08-24T21:55:14.683Z,24.60
2022-08-24T21:57:41.759Z,24.60
2022-08-24T22:00:13.245Z,24.60
2022-08-24T22:02:40.018Z,24.60
2022-08-24T22:05:06.755Z,24.70
2022-08-24T22:07:33.459Z,24.70
2022-08-24T22:10:02.665Z,24.60
2022-08-24T22:12:31.505Z,24.60
2022-08-24T22:14:58.103Z,24.60
2022-08-24T22:17:24.877Z,24.60
2022-08-24T22:19:53.851Z,24.60
2022-08-24T22:22:20.453Z,24.60
2022-08-24T22:24:49.290Z,24.60
2022-08-24T22:27:18.407Z,24.50
2022-08-24T22:29:47.505Z,24.50
2022-08-24T22:32:17.263Z,24.50
2022-08-24T22:34:45.981Z,24.50
2022-08-24T22:37:12.565Z,24.40
2022-08-24T22:39:41.536Z,24.40
2022-08-24T22:42:08.179Z,24.40
2022-08-24T22:44:34.898Z,24.30
2022-08-24T22:47:02.215Z,24.30
2022-08-24T22:49:30.037Z,24.30
2022-08-24T22:51:59.444Z,24.30
2022-08-24T22:54:30.785Z,24.30
2022-08-24T22:56:57.441Z,24.30
2022-08-24T22:59:25.156Z,24.30
2022-08-24T23:01:52.895Z,24.30
2022-08-24T23:04:24.439Z,24.30
2022-08-24T23:06:51.474Z,24.30
2022-08-24T23:09:18.375Z,24.30
2022-08-24T23:11:47.650Z,24.30
2022-08-24T23:14:14.741Z,24.30
2022-08-24T23:16:44.822Z,24.20
2022-08-24T23:19:30.232Z,24.20
2022-08-24T23:21:58.978Z,24.10
2022-08-24T23:24:27.766Z,24.10
2022-08-24T23:26:54.419Z,24.00
2022-08-24T23:29:21.435Z,24.00
2022-08-24T23:31:48.764Z,24.00
2022-08-24T23:34:15.510Z,23.90
2022-08-24T23:36:43.063Z,23.90
2022-08-24T23:39:10.685Z,23.80
2022-08-24T23:41:38.557Z,23.80
2022-08-24T23:44:07.069Z,23.80
2022-08-24T23:46:33.742Z,23.70
2022-08-24T23:49:03.733Z,23.70
2022-08-24T23:51:30.867Z,23.70
2022-08-24T23:53:57.909Z,23.80
2022-08-24T23:56:31.819Z,23.70
2022-08-24T23:58:59.833Z,23.70
